Time;durP1;ratioP1;P1;durP2;ratioP2;P2;SDS_P1;SDS_P2;PMS_P1;PMS_P2;Temp;Humidity;BMP_temperature;BMP_pressure;BME280_temperature;BME280_humidity;BME280_pressure;Samples;Min_cycle;Max_cycle;Signal;HPM_P1;HPM_P2
2022/03/13 00:00:07;;;;;;;4.85;1.80;;;;;;;;;;4992141;28;20521;-63
2022/03/13 00:02:41;;;;;;;4.18;2.30;;;;;;;;;;4993070;28;20151;-63
2022/03/13 00:05:16;;;;;;;;;;;;;;;;;;4976292;28;20057;-63
2022/03/13 00:07:51;;;;;;;7.53;2.05;;;;;;;;;;4988308;28;19933;-63
2022/03/13 00:10:50;;;;;;;3.45;1.25;;;;;;;;;;4969265;28;20058;-63
2022/03/13 00:13:35;;;;;;;11.43;6.72;;;;;;;;;;4963244;28;20054;-63
2022/03/13 00:16:09;;;;;;;3.40;2.08;;;;;;;;;;4988762;28;20054;-63
2022/03/13 00:18:47;;;;;;;3.78;1.70;;;;;;;;;;4972885;28;20054;-64
2022/03/13 00:21:20;;;;;;;11.05;6.72;;;;;;;;;;4949648;29;20055;-63
2022/03/13 00:23:54;;;;;;;3.50;1.50;;;;;;;;;;4934696;29;20055;-63
2022/03/13 00:26:27;;;;;;;6.13;3.33;;;;;;;;;;4951124;28;20063;-63
2022/03/13 00:28:57;;;;;;;1.50;0.95;;;;;;;;;;4937421;29;20524;-63
2022/03/13 00:31:30;;;;;;;3.08;1.00;;;;;;;;;;4953065;29;20063;-63
2022/03/13 00:34:01;;;;;;;3.20;1.00;;;;;;;;;;4934045;29;20055;-62
2022/03/13 00:36:32;;;;;;;3.50;0.60;;;;;;;;;;4934035;29;20480;-63
2022/03/13 00:39:05;;;;;;;0.88;0.60;;;;;;;;;;4898681;29;20060;-63
2022/03/13 00:41:38;;;;;;;3.53;0.90;;;;;;;;;;4864865;29;20057;-63
2022/03/13 00:44:10;;;;;;;2.67;1.15;;;;;;;;;;4895966;29;20105;-63
2022/03/13 00:46:41;;;;;;;;;;;;;;;;;;4915209;29;20201;-63
2022/03/13 00:49:14;;;;;;;1.92;0.77;;;;;;;;;;4876981;29;19923;-63
2022/03/13 00:51:45;;;;;;;1.40;0.80;;;;;;;;;;4868419;29;20052;-63
2022/03/13 00:54:16;;;;;;;3.05;0.80;;;;;;;;;;4914829;29;20060;-62
2022/03/13 00:56:50;;;;;;;;;;;;;;;;;;4930344;29;20066;-63
2022/03/13 00:59:23;;;;;;;1.60;0.82;;;;;;;;;;4933515;29;20355;-63
2022/03/13 01:01:54;;;;;;;1.60;0.80;;;;;;;;;;4929633;28;20066;-63
2022/03/13 01:04:25;;;;;;;5.10;0.75;;;;;;;;;;4901891;29;20052;-63
2022/03/13 01:06:57;;;;;;;2.53;1.10;;;;;;;;;;4898531;29;20052;-63
2022/03/13 01:09:28;;;;;;;1.15;0.82;;;;;;;;;;4914648;29;20526;-63
2022/03/13 01:12:00;;;;;;;1.30;0.75;;;;;;;;;;4926317;29;20424;-63
2022/03/13 01:14:32;;;;;;;3.97;0.90;;;;;;;;;;4933665;29;20058;-63
2022/03/13 01:17:08;;;;;;;1.55;0.80;;;;;;;;;;4933716;29;20634;-63
2022/03/13 01:19:39;;;;;;;2.88;0.90;;;;;;;;;;4933609;29;20436;-64
2022/03/13 01:22:15;;;;;;;4.32;1.13;;;;;;;;;;4933113;29;20056;-63
2022/03/13 01:24:47;;;;;;;2.20;0.60;;;;;;;;;;4895377;29;20225;-63
2022/03/13 01:27:20;;;;;;;2.45;1.13;;;;;;;;;;4895577;29;20072;-63
2022/03/13 01:29:54;;;;;;;2.20;1.02;;;;;;;;;;4914061;29;20048;-63
2022/03/13 01:32:27;;;;;;;4.50;1.10;;;;;;;;;;4913679;29;20064;-63
2022/03/13 01:34:58;;;;;;;2.80;1.10;;;;;;;;;;4927142;29;20043;-63
2022/03/13 01:37:36;;;;;;;3.45;0.90;;;;;;;;;;4931896;29;20051;-63
2022/03/13 01:40:22;;;;;;;1.65;1.00;;;;;;;;;;4933118;29;20056;-63
2022/03/13 01:42:55;;;;;;;5.10;1.05;;;;;;;;;;4948923;29;20059;-63
2022/03/13 01:45:26;;;;;;;2.13;1.00;;;;;;;;;;4920634;29;20082;-63
2022/03/13 01:47:59;;;;;;;2.85;1.05;;;;;;;;;;4932916;29;20060;-63
2022/03/13 01:50:34;;;;;;;1.80;0.93;;;;;;;;;;4932507;29;20056;-63
2022/03/13 01:53:08;;;;;;;5.50;1.52;;;;;;;;;;4917703;29;20067;-63
2022/03/13 01:55:38;;;;;;;4.05;1.23;;;;;;;;;;4932009;29;20060;-63
2022/03/13 01:58:17;;;;;;;3.97;1.10;;;;;;;;;;4932801;29;20070;-63
2022/03/13 02:00:51;;;;;;;2.22;1.17;;;;;;;;;;4932422;29;20100;-63
2022/03/13 02:03:22;;;;;;;3.38;1.05;;;;;;;;;;4974896;28;20070;-63
2022/03/13 02:05:52;;;;;;;2.65;1.23;;;;;;;;;;4990490;28;20058;-63
2022/03/13 02:08:25;;;;;;;2.20;1.10;;;;;;;;;;4991143;28;20061;-63
2022/03/13 02:10:59;;;;;;;3.25;1.10;;;;;;;;;;4990065;28;20042;-63
2022/03/13 02:13:34;;;;;;;2.33;0.93;;;;;;;;;;4990216;28;20525;-63
2022/03/13 02:16:06;;;;;;;3.90;1.00;;;;;;;;;;4954061;28;20058;-63
2022/03/13 02:18:42;;;;;;;1.42;0.90;;;;;;;;;;4970775;28;20063;-63
2022/03/13 02:21:16;;;;;;;4.22;1.23;;;;;;;;;;4970675;28;20059;-63
2022/03/13 02:23:47;;;;;;;6.68;1.10;;;;;;;;;;4962507;28;20059;-63
2022/03/13 02:26:21;;;;;;;2.83;0.98;;;;;;;;;;4950913;28;20641;-63
2022/03/13 02:28:57;;;;;;;5.10;0.93;;;;;;;;;;4950945;28;20443;-63
2022/03/13 02:31:29;;;;;;;;;;;;;;;;;;4916962;29;20455;-63
2022/03/13 02:34:02;;;;;;;1.85;0.80;;;;;;;;;;4901110;29;19930;-63
2022/03/13 02:36:32;;;;;;;2.58;0.90;;;;;;;;;;4931702;29;20051;-63
2022/03/13 02:39:07;;;;;;;1.30;0.77;;;;;;;;;;4912795;29;20097;-63
2022/03/13 02:41:42;;;;;;;3.83;0.70;;;;;;;;;;4912890;29;20064;-63
2022/03/13 02:44:18;;;;;;;2.45;0.73;;;;;;;;;;4912801;29;20044;-63
2022/03/13 02:46:49;;;;;;;1.67;0.90;;;;;;;;;;4909088;29;20245;-63
2022/03/13 02:49:24;;;;;;;1.30;0.68;;;;;;;;;;4908685;29;20060;-63
2022/03/13 02:51:59;;;;;;;2.00;0.60;;;;;;;;;;4935035;29;20128;-63
2022/03/13 02:54:31;;;;;;;2.60;0.80;;;;;;;;;;4950476;29;20059;-64
2022/03/13 02:57:02;;;;;;;1.13;0.52;;;;;;;;;;4950801;29;20548;-63
2022/03/13 02:59:34;;;;;;;1.60;0.60;;;;;;;;;;4950535;29;20066;-63
2022/03/13 03:02:07;;;;;;;3.40;0.63;;;;;;;;;;4934956;29;20060;-63
2022/03/13 03:04:44;;;;;;;2.03;1.30;;;;;;;;;;4950385;29;20787;-63
2022/03/13 03:07:14;;;;;;;4.45;0.60;;;;;;;;;;4933555;28;20055;-63
2022/03/13 03:09:46;;;;;;;2.47;0.82;;;;;;;;;;4999236;28;20094;-63
2022/03/13 03:12:18;;;;;;;1.50;0.70;;;;;;;;;;5009067;28;20073;-63
2022/03/13 03:14:54;;;;;;;1.30;0.70;;;;;;;;;;4969470;28;20077;-63
2022/03/13 03:17:24;;;;;;;1.65;0.60;;;;;;;;;;4931289;29;20056;-63
2022/03/13 03:19:58;;;;;;;3.92;0.90;;;;;;;;;;4893360;29;20048;-63
2022/03/13 03:22:32;;;;;;;1.70;0.70;;;;;;;;;;4891415;29;20056;-63
2022/03/13 03:25:05;;;;;;;2.92;0.98;;;;;;;;;;4896727;29;20559;-63
2022/03/13 03:27:35;;;;;;;;;;;;;;;;;;4912452;29;20044;-63
2022/03/13 03:30:09;;;;;;;3.63;0.88;;;;;;;;;;4896434;29;19923;-63
2022/03/13 03:32:41;;;;;;;4.20;0.63;;;;;;;;;;4912766;29;20064;-63
2022/03/13 03:35:12;;;;;;;1.05;0.70;;;;;;;;;;4912563;29;20067;-63
2022/03/13 03:37:42;;;;;;;1.00;0.60;;;;;;;;;;4911453;29;20416;-63
2022/03/13 03:40:17;;;;;;;3.72;0.70;;;;;;;;;;4895889;29;20532;-63
2022/03/13 03:42:51;;;;;;;1.55;0.90;;;;;;;;;;4896572;29;20060;-63
2022/03/13 03:45:26;;;;;;;2.97;0.93;;;;;;;;;;4912105;29;20393;-63
2022/03/13 03:47:56;;;;;;;3.53;1.05;;;;;;;;;;4896727;29;20497;-63
2022/03/13 03:50:29;;;;;;;2.65;1.15;;;;;;;;;;4911564;29;20064;-63
2022/03/13 03:53:02;;;;;;;1.73;0.85;;;;;;;;;;4919252;28;20200;-63
2022/03/13 03:55:34;;;;;;;4.28;1.00;;;;;;;;;;4960665;28;20047;-63
2022/03/13 03:58:04;;;;;;;2.15;1.05;;;;;;;;;;4981815;28;20046;-63
2022/03/13 04:00:34;;;;;;;1.77;0.95;;;;;;;;;;4955686;28;20482;-63
2022/03/13 04:03:06;;;;;;;3.75;0.80;;;;;;;;;;4959122;28;20050;-63
2022/03/13 04:05:40;;;;;;;2.80;0.77;;;;;;;;;;4977701;28;20066;-63
2022/03/13 04:08:10;;;;;;;2.38;0.70;;;;;;;;;;4971868;28;20384;-63
2022/03/13 04:10:42;;;;;;;1.40;0.50;;;;;;;;;;4952527;29;20063;-63
2022/03/13 04:13:18;;;;;;;4.30;0.80;;;;;;;;;;4952744;29;20059;-63
2022/03/13 04:15:51;;;;;;;3.42;0.77;;;;;;;;;;4937069;29;20055;-63
2022/03/13 04:18:21;;;;;;;;;;;;;;;;;;4933804;29;20052;-63
2022/03/13 04:20:51;;;;;;;1.73;0.60;;;;;;;;;;4932939;29;19922;-63
2022/03/13 04:23:22;;;;;;;1.58;0.68;;;;;;;;;;4933155;29;20060;-63
2022/03/13 04:25:53;;;;;;;2.35;0.85;;;;;;;;;;4917867;29;20544;-63
2022/03/13 04:28:24;;;;;;;1.80;0.70;;;;;;;;;;4945403;28;20059;-63
2022/03/13 04:30:57;;;;;;;2.95;0.90;;;;;;;;;;4914260;29;20056;-63
2022/03/13 04:33:28;;;;;;;2.45;1.00;;;;;;;;;;4882820;29;20056;-63
2022/03/13 04:36:03;;;;;;;0.93;0.60;;;;;;;;;;4905097;28;20055;-63
2022/03/13 04:38:35;;;;;;;3.35;0.80;;;;;;;;;;4936066;28;20052;-62
2022/03/13 04:41:08;;;;;;;2.03;0.80;;;;;;;;;;4932928;29;20063;-63
2022/03/13 04:43:38;;;;;;;3.60;0.82;;;;;;;;;;4917014;29;20060;-63
2022/03/13 04:46:17;;;;;;;1.55;0.70;;;;;;;;;;4933081;29;20055;-63
2022/03/13 04:48:48;;;;;;;2.08;0.60;;;;;;;;;;4895446;29;20059;-63
2022/03/13 04:51:19;;;;;;;8.23;0.95;;;;;;;;;;4948073;28;20059;-63
2022/03/13 04:53:49;;;;;;;8.25;0.60;;;;;;;;;;4932694;29;20066;-63
2022/03/13 04:56:21;;;;;;;2.53;0.77;;;;;;;;;;4877309;28;2335925;-63
2022/03/13 04:58:53;;;;;;;4.18;0.85;;;;;;;;;;4972380;28;20055;-63
2022/03/13 05:01:24;;;;;;;2.05;1.05;;;;;;;;;;4972283;28;20054;-63
2022/03/13 05:03:55;;;;;;;1.98;1.10;;;;;;;;;;4971967;28;20161;-63
2022/03/13 05:06:28;;;;;;;2.50;1.10;;;;;;;;;;4936971;29;20508;-63
2022/03/13 05:08:59;;;;;;;2.33;1.05;;;;;;;;;;4979429;28;20058;-63
2022/03/13 05:11:30;;;;;;;3.30;1.00;;;;;;;;;;4990941;28;20510;-62
2022/03/13 05:14:03;;;;;;;3.53;1.00;;;;;;;;;;4991547;28;20058;-63
2022/03/13 05:16:33;;;;;;;3.75;1.05;;;;;;;;;;4991319;28;20054;-63
2022/03/13 05:19:06;;;;;;;2.35;0.70;;;;;;;;;;5003521;28;20054;-63
2022/03/13 05:21:46;;;;;;;6.85;1.20;;;;;;;;;;4971686;28;20046;-63
2022/03/13 05:24:19;;;;;;;4.57;0.80;;;;;;;;;;4956703;28;20047;-63
2022/03/13 05:26:51;;;;;;;1.67;1.13;;;;;;;;;;4962353;28;20632;-63
2022/03/13 05:29:21;;;;;;;7.90;1.00;;;;;;;;;;4959116;28;20077;-63
2022/03/13 05:31:54;;;;;;;2.70;0.80;;;;;;;;;;4952316;29;20055;-63
2022/03/13 05:34:25;;;;;;;3.67;0.85;;;;;;;;;;4952323;29;20067;-63
2022/03/13 05:36:56;;;;;;;4.30;0.80;;;;;;;;;;4933486;29;20063;-63
2022/03/13 05:39:26;;;;;;;3.08;0.70;;;;;;;;;;4933232;29;20067;-63
2022/03/13 05:41:59;;;;;;;2.67;0.82;;;;;;;;;;4901573;29;20051;-63
2022/03/13 05:44:29;;;;;;;4.88;0.98;;;;;;;;;;4945520;29;20570;-63
2022/03/13 05:47:02;;;;;;;5.93;0.80;;;;;;;;;;4936824;29;20059;-63
2022/03/13 05:49:34;;;;;;;2.65;0.90;;;;;;;;;;4952017;29;20051;-63
2022/03/13 05:52:13;;;;;;;1.95;0.85;;;;;;;;;;4952035;29;20055;-63
2022/03/13 05:54:44;;;;;;;3.55;1.00;;;;;;;;;;4951914;29;20062;-63
2022/03/13 05:57:15;;;;;;;3.75;0.88;;;;;;;;;;4920141;29;20047;-63
2022/03/13 05:59:45;;;;;;;3.97;0.95;;;;;;;;;;4977949;28;20561;-63
2022/03/13 06:02:16;;;;;;;5.15;1.45;;;;;;;;;;4995700;28;20072;-63
2022/03/13 06:04:54;;;;;;;2.17;0.98;;;;;;;;;;5009970;28;20493;-63
2022/03/13 06:07:25;;;;;;;3.25;0.90;;;;;;;;;;4994258;28;20061;-63
2022/03/13 06:09:56;;;;;;;2.10;1.15;;;;;;;;;;5022912;28;20060;-63
2022/03/13 06:12:32;;;;;;;6.75;1.00;;;;;;;;;;5009866;28;20057;-63
2022/03/13 06:15:05;;;;;;;2.40;1.10;;;;;;;;;;5037882;28;20107;-64
2022/03/13 06:17:40;;;;;;;3.42;0.95;;;;;;;;;;5016338;28;20053;-63
2022/03/13 06:20:14;;;;;;;1.52;0.80;;;;;;;;;;5049522;28;20061;-63
2022/03/13 06:22:48;;;;;;;4.40;1.00;;;;;;;;;;5049720;28;20456;-63
2022/03/13 06:25:19;;;;;;;4.88;1.15;;;;;;;;;;5032746;28;20501;-63
2022/03/13 06:27:51;;;;;;;4.78;1.00;;;;;;;;;;5049253;28;20067;-63
2022/03/13 06:30:21;;;;;;;2.95;1.45;;;;;;;;;;5049256;28;20480;-63
2022/03/13 06:32:55;;;;;;;3.22;1.08;;;;;;;;;;5049625;28;20559;-63
2022/03/13 06:35:27;;;;;;;3.58;1.00;;;;;;;;;;5049320;28;20056;-63
2022/03/13 06:37:59;;;;;;;1.90;1.20;;;;;;;;;;5049123;28;20060;-62
2022/03/13 06:40:29;;;;;;;4.57;0.98;;;;;;;;;;5015928;28;20057;-62
2022/03/13 06:43:00;;;;;;;5.50;1.10;;;;;;;;;;5069214;28;20504;-62
2022/03/13 06:45:31;;;;;;;3.78;1.20;;;;;;;;;;5068833;28;20048;-62
2022/03/13 06:48:01;;;;;;;0.88;0.50;;;;;;;;;;5068871;28;20055;-62
2022/03/13 06:50:31;;;;;;;2.38;0.52;;;;;;;;;;5084025;28;20063;-62
2022/03/13 06:53:03;;;;;;;3.63;0.55;;;;;;;;;;5091397;28;20683;-62
2022/03/13 06:55:36;;;;;;;0.90;0.45;;;;;;;;;;5069813;28;20055;-63
2022/03/13 06:58:10;;;;;;;1.25;0.40;;;;;;;;;;5071424;28;20045;-63
2022/03/13 07:00:40;;;;;;;2.47;0.40;;;;;;;;;;5048595;28;20063;-62
2022/03/13 07:03:13;;;;;;;1.50;0.40;;;;;;;;;;5032077;28;20049;-63
2022/03/13 07:05:46;;;;;;;4.00;0.40;;;;;;;;;;4995641;28;20065;-63
2022/03/13 07:08:20;;;;;;;3.22;0.50;;;;;;;;;;5013257;28;20061;-63
2022/03/13 07:10:50;;;;;;;1.38;0.57;;;;;;;;;;5028819;28;20429;-63
2022/03/13 07:13:22;;;;;;;4.75;0.75;;;;;;;;;;4980034;28;20401;-63
2022/03/13 07:15:55;;;;;;;2.08;0.50;;;;;;;;;;5012457;28;20056;-63
2022/03/13 07:18:27;;;;;;;2.95;0.45;;;;;;;;;;5028500;28;20064;-62
2022/03/13 07:20:57;;;;;;;0.98;0.30;;;;;;;;;;4963193;28;20042;-63
2022/03/13 07:23:30;;;;;;;0.90;0.30;;;;;;;;;;5028804;28;20049;-63
2022/03/13 07:26:03;;;;;;;3.38;0.77;;;;;;;;;;5028470;28;20061;-63
2022/03/13 07:28:37;;;;;;;2.90;0.52;;;;;;;;;;4995553;28;20053;-63
2022/03/13 07:31:09;;;;;;;1.63;0.40;;;;;;;;;;5028417;28;20057;-63
2022/03/13 07:33:39;;;;;;;4.95;0.40;;;;;;;;;;5028910;28;20050;-63
2022/03/13 07:36:11;;;;;;;4.95;0.57;;;;;;;;;;5031355;28;20067;-63
2022/03/13 07:38:41;;;;;;;2.17;0.43;;;;;;;;;;5059165;28;20052;-62
2022/03/13 07:41:12;;;;;;;0.65;0.35;;;;;;;;;;5056281;28;20489;-63
2022/03/13 07:43:44;;;;;;;3.38;0.38;;;;;;;;;;5074259;28;20460;-63
2022/03/13 07:46:14;;;;;;;0.85;0.43;;;;;;;;;;5074587;28;20412;-63
2022/03/13 07:48:48;;;;;;;2.28;0.30;;;;;;;;;;5072852;28;20052;-63
2022/03/13 07:51:20;;;;;;;2.10;0.60;;;;;;;;;;5074898;28;20045;-63
2022/03/13 07:53:50;;;;;;;4.97;0.38;;;;;;;;;;5072138;28;20075;-63
2022/03/13 07:56:23;;;;;;;0.57;0.22;;;;;;;;;;5072028;28;20435;-63
2022/03/13 07:58:56;;;;;;;2.10;0.32;;;;;;;;;;5072330;28;20052;-63
2022/03/13 08:01:27;;;;;;;2.75;0.50;;;;;;;;;;5031784;28;20041;-63
2022/03/13 08:04:01;;;;;;;9.45;0.65;;;;;;;;;;5015315;28;20076;-63
2022/03/13 08:06:39;;;;;;;0.70;0.30;;;;;;;;;;5031941;28;20069;-62
2022/03/13 08:09:11;;;;;;;7.18;0.40;;;;;;;;;;5031964;28;20062;-64
2022/03/13 08:11:42;;;;;;;7.20;0.30;;;;;;;;;;5032138;28;20100;-63
2022/03/13 08:14:12;;;;;;;7.63;0.30;;;;;;;;;;5032092;28;20057;-63
2022/03/13 08:16:43;;;;;;;5.30;0.32;;;;;;;;;;5031790;28;20421;-63
2022/03/13 08:19:16;;;;;;;1.35;0.30;;;;;;;;;;5031857;28;20061;-64
2022/03/13 08:21:46;;;;;;;;;;;;;;;;;;5032586;28;20050;-63
2022/03/13 08:24:17;;;;;;;0.90;0.25;;;;;;;;;;5015359;28;19921;-63
2022/03/13 08:26:47;;;;;;;;;;;;;;;;;;5016247;28;20544;-63
2022/03/13 08:29:18;;;;;;;4.20;0.25;;;;;;;;;;5031778;28;19925;-63
2022/03/13 08:31:50;;;;;;;3.17;0.30;;;;;;;;;;5031873;28;20049;-63
2022/03/13 08:34:29;;;;;;;2.50;0.40;;;;;;;;;;5014842;28;20056;-63
2022/03/13 08:37:04;;;;;;;6.53;0.45;;;;;;;;;;4982689;28;20084;-63
2022/03/13 08:39:37;;;;;;;6.20;0.28;;;;;;;;;;5059701;28;20140;-63
2022/03/13 08:42:09;;;;;;;0.50;0.30;;;;;;;;;;5046319;28;20067;-63
2022/03/13 08:44:40;;;;;;;2.60;0.30;;;;;;;;;;5001824;28;20421;-63
2022/03/13 08:47:12;;;;;;;4.00;0.30;;;;;;;;;;5050771;28;20061;-63
2022/03/13 08:49:42;;;;;;;1.80;0.30;;;;;;;;;;5051254;28;20056;-63
2022/03/13 08:52:14;;;;;;;0.38;0.17;;;;;;;;;;5030994;28;20441;-63
2022/03/13 08:54:44;;;;;;;1.17;0.50;;;;;;;;;;5010984;28;20050;-63
2022/03/13 08:57:14;;;;;;;3.78;0.20;;;;;;;;;;5011258;28;20058;-63
2022/03/13 08:59:46;;;;;;;6.85;0.30;;;;;;;;;;4991319;28;20051;-63
2022/03/13 09:02:19;;;;;;;0.45;0.30;;;;;;;;;;4991790;28;20098;-63
2022/03/13 09:04:50;;;;;;;0.85;0.20;;;;;;;;;;4991537;28;20061;-63
2022/03/13 09:07:21;;;;;;;0.98;0.20;;;;;;;;;;4959441;28;20066;-63
2022/03/13 09:09:51;;;;;;;5.75;0.30;;;;;;;;;;4959640;28;20050;-63
2022/03/13 09:12:26;;;;;;;1.20;0.30;;;;;;;;;;4991574;28;20058;-63
2022/03/13 09:14:59;;;;;;;2.60;0.40;;;;;;;;;;4991341;28;20058;-63
2022/03/13 09:17:29;;;;;;;1.23;0.30;;;;;;;;;;4952588;29;20522;-63
2022/03/13 09:19:59;;;;;;;1.67;0.30;;;;;;;;;;4947761;28;20051;-63
2022/03/13 09:22:32;;;;;;;3.35;0.35;;;;;;;;;;4923858;28;20427;-63
2022/03/13 09:25:08;;;;;;;1.00;0.30;;;;;;;;;;4971434;28;20575;-62
2022/03/13 09:27:40;;;;;;;2.20;0.30;;;;;;;;;;4971761;28;20055;-62
2022/03/13 09:30:11;;;;;;;4.22;0.38;;;;;;;;;;4946963;28;20070;-62
2022/03/13 09:32:43;;;;;;;3.22;0.30;;;;;;;;;;5008424;28;20060;-63
2022/03/13 09:35:17;;;;;;;4.88;0.30;;;;;;;;;;5030393;28;20072;-62
2022/03/13 09:37:49;;;;;;;2.60;0.30;;;;;;;;;;4998325;28;20057;-62
2022/03/13 09:40:21;;;;;;;1.65;0.30;;;;;;;;;;5030335;28;20045;-63
2022/03/13 09:42:55;;;;;;;3.90;0.63;;;;;;;;;;5013693;28;20048;-63
2022/03/13 09:45:27;;;;;;;3.42;0.30;;;;;;;;;;5010141;28;20065;-62
2022/03/13 09:47:58;;;;;;;2.50;0.20;;;;;;;;;;4978920;28;20532;-63
2022/03/13 09:50:29;;;;;;;1.08;0.20;;;;;;;;;;4957759;28;20562;-63
2022/03/13 09:53:00;;;;;;;1.95;0.17;;;;;;;;;;4990859;28;20481;-63
2022/03/13 09:55:31;;;;;;;0.75;0.30;;;;;;;;;;4951580;28;20053;-63
2022/03/13 09:58:02;;;;;;;3.25;0.35;;;;;;;;;;4990365;28;20065;-63
2022/03/13 10:00:32;;;;;;;2.65;0.60;;;;;;;;;;4990270;28;20419;-63
2022/03/13 10:03:11;;;;;;;1.85;0.17;;;;;;;;;;4978027;28;20521;-63
2022/03/13 10:05:45;;;;;;;2.17;0.32;;;;;;;;;;4961283;28;20061;-62
2022/03/13 10:08:29;;;;;;;4.32;0.20;;;;;;;;;;5010288;28;20049;-62
2022/03/13 10:11:02;;;;;;;0.30;0.20;;;;;;;;;;4961474;28;20046;-62
2022/03/13 10:13:46;;;;;;;0.60;0.30;;;;;;;;;;5010102;28;20057;-63
2022/03/13 10:16:38;;;;;;;2.78;0.28;;;;;;;;;;5009996;28;20058;-62
2022/03/13 10:19:15;;;;;;;0.50;0.22;;;;;;;;;;5010042;28;20734;-62
2022/03/13 10:22:05;;;;;;;1.40;0.40;;;;;;;;;;5009951;28;20399;-62
2022/03/13 10:24:46;;;;;;;3.65;0.40;;;;;;;;;;4989936;28;20062;-62
2022/03/13 10:27:20;;;;;;;1.73;0.22;;;;;;;;;;4996228;28;20494;-62
2022/03/13 10:29:53;;;;;;;2.55;0.60;;;;;;;;;;4996973;28;20410;-62
2022/03/13 10:32:24;;;;;;;5.43;0.50;;;;;;;;;;5029361;28;20045;-62
2022/03/13 10:35:01;;;;;;;2.15;0.60;;;;;;;;;;5029666;28;20593;-62
2022/03/13 10:37:39;;;;;;;4.15;0.57;;;;;;;;;;5013112;28;20057;-62
2022/03/13 10:40:22;;;;;;;3.55;0.98;;;;;;;;;;5029264;28;20547;-62
2022/03/13 10:42:58;;;;;;;1.60;0.70;;;;;;;;;;5029349;28;20568;-62
2022/03/13 10:45:47;;;;;;;2.15;0.70;;;;;;;;;;4989522;28;20046;-62
2022/03/13 10:48:22;;;;;;;4.68;0.70;;;;;;;;;;4989819;28;20062;-62
2022/03/13 10:51:02;;;;;;;1.00;0.50;;;;;;;;;;4973685;28;20046;-62
2022/03/13 10:53:33;;;;;;;1.55;0.60;;;;;;;;;;4969898;28;20054;-62
2022/03/13 10:56:10;;;;;;;5.30;0.77;;;;;;;;;;4979388;28;20051;-62
2022/03/13 10:58:48;;;;;;;1.80;0.40;;;;;;;;;;4989236;28;20062;-62
2022/03/13 11:01:23;;;;;;;0.70;0.40;;;;;;;;;;4992175;28;20061;-62
2022/03/13 11:04:02;;;;;;;2.63;0.47;;;;;;;;;;4944575;28;20053;-62
2022/03/13 11:06:34;;;;;;;2.05;0.80;;;;;;;;;;4992440;28;20556;-65
2022/03/13 11:09:07;;;;;;;3.33;0.40;;;;;;;;;;5009166;28;20057;-62
2022/03/13 11:11:40;;;;;;;2.42;0.30;;;;;;;;;;4988763;28;20537;-62
2022/03/13 11:14:12;;;;;;;2.00;0.40;;;;;;;;;;4989488;28;20059;-63
2022/03/13 11:16:54;;;;;;;2.65;0.40;;;;;;;;;;4974345;28;20062;-62
2022/03/13 11:19:28;;;;;;;2.42;0.80;;;;;;;;;;4989389;28;20066;-62
2022/03/13 11:21:59;;;;;;;1.55;0.70;;;;;;;;;;4990665;28;20669;-62
2022/03/13 11:24:29;;;;;;;1.35;0.80;;;;;;;;;;5028025;28;20608;-62
2022/03/13 11:27:05;;;;;;;2.33;0.40;;;;;;;;;;5012480;28;20045;-63
2022/03/13 11:29:51;;;;;;;4.25;0.50;;;;;;;;;;4988693;28;20057;-63
2022/03/13 11:32:50;;;;;;;1.48;0.35;;;;;;;;;;4989448;28;20406;-62
2022/03/13 11:35:21;;;;;;;;;;;;;;;;;;4989890;28;20054;-63
2022/03/13 11:38:20;;;;;;;0.60;0.30;;;;;;;;;;4989118;28;20063;-63
2022/03/13 11:40:51;;;;;;;2.22;0.50;;;;;;;;;;5021091;28;20055;-63
2022/03/13 11:43:23;;;;;;;1.75;0.35;;;;;;;;;;4989120;28;20050;-63
2022/03/13 11:46:00;;;;;;;1.83;0.60;;;;;;;;;;4989086;28;20050;-62
2022/03/13 11:48:33;;;;;;;2.05;0.35;;;;;;;;;;4972110;28;20376;-63
2022/03/13 11:51:07;;;;;;;1.83;0.40;;;;;;;;;;4988961;28;20062;-63
2022/03/13 11:53:40;;;;;;;2.08;0.30;;;;;;;;;;4988892;28;20522;-63
2022/03/13 11:56:26;;;;;;;3.55;0.60;;;;;;;;;;4967834;28;20054;-63
2022/03/13 12:02:11;;;;;;;1.15;0.45;;;;;;;;;;4996351;28;20073;-64
2022/03/13 12:04:49;;;;;;;3.58;0.45;;;;;;;;;;5008499;28;20407;-64
2022/03/13 12:07:28;;;;;;;1.98;0.47;;;;;;;;;;5018976;28;20073;-64
2022/03/13 12:10:33;;;;;;;3.40;0.50;;;;;;;;;;5008040;28;20057;-64
2022/03/13 12:13:05;;;;;;;6.72;0.82;;;;;;;;;;4992225;28;20058;-64
2022/03/13 12:15:37;;;;;;;2.65;0.40;;;;;;;;;;4968801;28;20051;-64
2022/03/13 12:18:31;;;;;;;4.00;0.40;;;;;;;;;;4969558;28;20054;-64
2022/03/13 12:21:12;;;;;;;4.38;0.60;;;;;;;;;;4938333;28;20051;-64
2022/03/13 12:23:43;;;;;;;7.20;0.70;;;;;;;;;;4972816;28;20051;-63
2022/03/13 12:26:27;;;;;;;1.23;0.70;;;;;;;;;;4943844;28;20044;-64
2022/03/13 12:28:59;;;;;;;3.42;1.83;;;;;;;;;;4937776;28;20051;-64
2022/03/13 12:31:40;;;;;;;3.13;1.40;;;;;;;;;;4953199;28;20426;-64
2022/03/13 12:34:23;;;;;;;6.78;2.70;;;;;;;;;;4922295;28;20062;-65
2022/03/13 12:37:02;;;;;;;3.65;1.40;;;;;;;;;;4936651;28;20539;-64
2022/03/13 12:39:34;;;;;;;9.05;5.25;;;;;;;;;;4953430;28;20058;-64
2022/03/13 12:42:07;;;;;;;7.30;2.22;;;;;;;;;;4937600;28;20051;-64
2022/03/13 12:44:38;;;;;;;3.30;1.60;;;;;;;;;;4953177;28;20411;-64
2022/03/13 12:47:08;;;;;;;9.80;1.92;;;;;;;;;;4900979;29;20058;-64
2022/03/13 12:49:43;;;;;;;5.85;1.95;;;;;;;;;;4915042;29;20064;-64
2022/03/13 12:52:16;;;;;;;5.72;2.92;;;;;;;;;;4917774;29;20075;-64
2022/03/13 12:54:45;;;;;;;;;;;;;;;;;;4953569;29;20055;-64
2022/03/13 12:57:19;;;;;;;6.65;3.58;;;;;;;;;;4962297;28;20877;-64
2022/03/13 12:59:53;;;;;;;8.15;4.53;;;;;;;;;;4972512;28;20067;-64
2022/03/13 13:02:31;;;;;;;10.13;5.93;;;;;;;;;;4971714;28;20066;-64
2022/03/13 13:05:10;;;;;;;10.80;7.10;;;;;;;;;;4940003;28;20051;-64
2022/03/13 13:07:43;;;;;;;6.75;4.22;;;;;;;;;;4971968;28;20051;-64
2022/03/13 13:10:14;;;;;;;7.22;3.83;;;;;;;;;;4977049;28;20506;-64
2022/03/13 13:12:46;;;;;;;4.03;2.33;;;;;;;;;;4994849;28;20050;-63
2022/03/13 13:15:23;;;;;;;4.57;2.45;;;;;;;;;;4994659;28;20065;-64
2022/03/13 13:17:59;;;;;;;3.42;2.17;;;;;;;;;;4944555;28;20069;-64
2022/03/13 13:20:32;;;;;;;5.60;2.20;;;;;;;;;;4991349;28;20070;-64
2022/03/13 13:23:13;;;;;;;4.32;2.22;;;;;;;;;;4991461;28;20054;-64
2022/03/13 13:25:52;;;;;;;11.45;7.55;;;;;;;;;;5044235;28;20523;-64
2022/03/13 13:28:24;;;;;;;5.88;3.78;;;;;;;;;;5050463;28;20053;-64
2022/03/13 13:30:57;;;;;;;9.82;3.40;;;;;;;;;;5050477;28;20060;-64
2022/03/13 13:33:33;;;;;;;7.85;3.55;;;;;;;;;;5018025;28;20056;-64
2022/03/13 13:36:04;;;;;;;9.07;3.30;;;;;;;;;;5050212;28;20512;-64
2022/03/13 13:38:38;;;;;;;11.13;4.00;;;;;;;;;;5010524;28;20057;-64
2022/03/13 13:41:09;;;;;;;7.13;3.67;;;;;;;;;;5028972;28;20069;-64
2022/03/13 13:43:44;;;;;;;5.75;3.03;;;;;;;;;;5030144;28;20061;-64
2022/03/13 13:46:18;;;;;;;5.63;2.40;;;;;;;;;;5010066;28;20453;-64
2022/03/13 13:48:51;;;;;;;6.50;2.90;;;;;;;;;;4978220;28;20049;-64
2022/03/13 13:51:29;;;;;;;4.70;1.90;;;;;;;;;;4977440;28;20073;-64
2022/03/13 13:54:23;;;;;;;3.75;1.40;;;;;;;;;;5010153;28;20144;-65
2022/03/13 13:57:00;;;;;;;3.95;1.75;;;;;;;;;;4977801;28;20065;-64
2022/03/13 13:59:32;;;;;;;4.55;2.20;;;;;;;;;;5010038;28;20061;-64
2022/03/13 14:02:08;;;;;;;2.60;1.33;;;;;;;;;;5010221;28;20149;-64
2022/03/13 14:04:45;;;;;;;2.45;1.23;;;;;;;;;;5029962;28;20060;-64
2022/03/13 14:07:17;;;;;;;2.10;0.93;;;;;;;;;;5029942;28;20572;-64
2022/03/13 14:10:02;;;;;;;2.67;0.73;;;;;;;;;;4996799;28;20068;-64
2022/03/13 14:12:34;;;;;;;3.70;0.70;;;;;;;;;;5029555;28;20062;-64
2022/03/13 14:15:08;;;;;;;2.95;0.70;;;;;;;;;;4980192;28;20050;-64
2022/03/13 14:17:39;;;;;;;3.58;0.70;;;;;;;;;;5029569;28;20510;-64
2022/03/13 14:20:10;;;;;;;1.60;1.20;;;;;;;;;;5029596;28;20072;-64
2022/03/13 14:22:43;;;;;;;3.25;0.80;;;;;;;;;;5030041;28;20053;-64
2022/03/13 14:25:17;;;;;;;4.47;0.90;;;;;;;;;;5049101;28;20049;-64
2022/03/13 14:27:49;;;;;;;2.85;1.17;;;;;;;;;;5033071;28;20080;-64
2022/03/13 14:30:20;;;;;;;3.58;1.10;;;;;;;;;;5049437;28;20513;-65
2022/03/13 14:32:53;;;;;;;2.20;1.40;;;;;;;;;;5049486;28;20053;-68
2022/03/13 14:35:24;;;;;;;2.67;1.58;;;;;;;;;;5049046;28;20061;-71
2022/03/13 14:37:54;;;;;;;2.58;1.35;;;;;;;;;;5049322;28;20053;-70
2022/03/13 14:40:42;;;;;;;2.53;1.50;;;;;;;;;;5000723;28;20048;-69
2022/03/13 14:43:15;;;;;;;2.88;1.40;;;;;;;;;;5049080;28;20045;-67
2022/03/13 14:45:48;;;;;;;3.35;1.70;;;;;;;;;;4999263;28;20409;-70
2022/03/13 14:48:19;;;;;;;3.08;1.40;;;;;;;;;;5032226;28;20056;-68
2022/03/13 14:50:51;;;;;;;2.85;1.70;;;;;;;;;;5048971;28;20053;-75
2022/03/13 14:53:23;;;;;;;3.10;1.80;;;;;;;;;;5048954;28;20052;-69
2022/03/13 14:55:56;;;;;;;3.78;1.73;;;;;;;;;;5061219;28;20056;-67
2022/03/13 14:58:34;;;;;;;3.50;1.95;;;;;;;;;;4992930;28;20074;-67
2022/03/13 15:01:06;;;;;;;5.00;1.60;;;;;;;;;;5048639;28;20060;-66
2022/03/13 15:03:43;;;;;;;2.67;1.20;;;;;;;;;;4976565;28;20057;-66
2022/03/13 15:06:17;;;;;;;1.70;0.90;;;;;;;;;;4976388;28;20061;-66
2022/03/13 15:08:48;;;;;;;2.90;0.80;;;;;;;;;;4992650;28;20050;-66
2022/03/13 15:11:18;;;;;;;1.23;0.60;;;;;;;;;;5009163;28;20084;-66
2022/03/13 15:13:52;;;;;;;2.63;0.88;;;;;;;;;;5008883;28;20573;-66
2022/03/13 15:16:26;;;;;;;1.50;0.90;;;;;;;;;;4969724;28;20058;-66
2022/03/13 15:18:57;;;;;;;1.05;0.73;;;;;;;;;;4970002;28;20728;-66
2022/03/13 15:21:28;;;;;;;;;;;;;;;;;;4970398;28;20467;-65
2022/03/13 15:24:01;;;;;;;2.67;0.70;;;;;;;;;;4969788;28;19929;-65
2022/03/13 15:26:34;;;;;;;0.55;0.50;;;;;;;;;;4969687;28;20478;-66